Time,TemperatureF,DewpointF,PressureIn,WindDirection,WindDirectionDegrees,WindSpeedMPH,WindSpeedGustMPH,Humidity,HourlyPrecipIn,Conditions,Clouds,dailyrainin,SoftwareType,DateUTC
2013-01-19 00:00:00,30.5,28.2,29.84,WSW,256,0.0,1.0,91,0.00,,,0.00,VWS V14.01,2013-01-19 06:00:00,
2013-01-19 00:01:00,30.5,28.2,29.84,WSW,256,0.0,0.0,91,0.00,,,0.00,VWS V14.01,2013-01-19 06:01:00,
2013-01-19 00:06:00,30.5,28.2,29.84,WSW,256,0.0,1.0,91,0.00,,,0.00,VWS V14.01,2013-01-19 06:06:00,
2013-01-19 00:11:00,30.6,28.6,29.84,WSW,254,0.0,1.0,92,0.00,,,0.00,VWS V14.01,2013-01-19 06:11:00,
2013-01-19 00:15:00,30.6,28.6,29.84,WSW,254,0.0,1.0,92,0.00,,,0.00,VWS V14.01,2013-01-19 06:15:00,
2013-01-19 00:16:00,30.7,28.7,29.83,WSW,254,0.0,0.0,92,0.00,,,0.00,VWS V14.01,2013-01-19 06:16:00,
2013-01-19 00:21:00,30.7,28.7,29.83,WSW,254,0.0,1.0,92,0.00,,,0.00,VWS V14.01,2013-01-19 06:21:00,
2013-01-19 00:26:00,30.8,28.8,29.83,WSW,254,0.0,1.0,92,0.00,,,0.00,VWS V14.01,2013-01-19 06:26:00,
2013-01-19 00:30:00,30.8,28.8,29.83,WSW,254,0.0,1.0,92,0.00,,,0.00,VWS V14.01,2013-01-19 06:30:00,
2013-01-19 00:32:00,30.8,28.8,29.83,WSW,254,0.0,0.0,92,0.00,,,0.00,VWS V14.01,2013-01-19 06:32:00,
2013-01-19 00:37:00,31.0,29.0,29.83,West,263,0.0,2.0,92,0.00,,,0.00,VWS V14.01,2013-01-19 06:37:00,
2013-01-19 00:42:00,31.1,29.0,29.83,West,263,0.0,2.0,92,0.00,,,0.00,VWS V14.01,2013-01-19 06:42:00,
2013-01-19 00:45:00,31.1,29.0,29.83,West,263,0.0,2.0,92,0.00,,,0.00,VWS V14.01,2013-01-19 06:45:00,
2013-01-19 00:47:00,31.2,29.1,29.83,West,263,0.0,1.0,92,0.00,,,0.00,VWS V14.01,2013-01-19 06:47:00,
2013-01-19 00:52:00,31.3,29.2,29.82,West,263,0.0,1.0,92,0.00,,,0.00,VWS V14.01,2013-01-19 06:52:00,
2013-01-19 00:57:00,31.4,29.4,29.82,West,263,0.0,1.0,92,0.00,,,0.00,VWS V14.01,2013-01-19 06:57:00,
2013-01-19 01:00:00,31.4,29.1,29.82,West,263,0.0,1.0,91,0.00,,,0.00,VWS V14.01,2013-01-19 07:00:00,
2013-01-19 01:02:00,31.4,29.1,29.82,West,263,0.0,0.0,91,0.00,,,0.00,VWS V14.01,2013-01-19 07:02:00,
2013-01-19 01:07:00,31.4,29.1,29.82,West,263,0.0,0.0,91,0.00,,,0.00,VWS V14.01,2013-01-19 07:07:00,
2013-01-19 01:13:00,31.4,29.1,29.81,West,263,0.0,0.0,91,0.00,,,0.00,VWS V14.01,2013-01-19 07:13:00,
2013-01-19 01:15:00,31.4,29.1,29.81,West,263,0.0,0.0,91,0.00,,,0.00,VWS V14.01,2013-01-19 07:15:00,
2013-01-19 01:18:00,31.3,29.0,29.81,West,263,0.0,1.0,91,0.00,,,0.00,VWS V14.01,2013-01-19 07:18:00,
2013-01-19 01:23:00,31.3,29.0,29.81,West,263,0.0,1.0,91,0.00,,,0.00,VWS V14.01,2013-01-19 07:23:00,
2013-01-19 01:28:00,31.2,28.9,29.81,West,263,0.0,1.0,91,0.00,,,0.00,VWS V14.01,2013-01-19 07:28:00,
2013-01-19 01:30:00,31.2,28.9,29.81,West,263,0.0,1.0,91,0.00,,,0.00,VWS V14.01,2013-01-19 07:30:00,
2013-01-19 01:33:00,31.3,29.0,29.80,West,263,0.0,0.0,91,0.00,,,0.00,VWS V14.01,2013-01-19 07:33:00,
2013-01-19 01:38:00,31.3,29.2,29.80,West,263,0.0,0.0,92,0.00,,,0.00,VWS V14.01,2013-01-19 07:38:00,
2013-01-19 01:43:00,31.2,28.9,29.80,West,263,0.0,0.0,91,0.00,,,0.00,VWS V14.01,2013-01-19 07:43:00,
2013-01-19 01:45:00,31.2,28.9,29.80,West,263,0.0,0.0,91,0.00,,,0.00,VWS V14.01,2013-01-19 07:45:00,
2013-01-19 01:48:00,31.2,29.1,29.80,West,263,0.0,0.0,92,0.00,,,0.00,VWS V14.01,2013-01-19 07:48:00,
2013-01-19 01:53:00,31.2,28.9,29.80,West,263,0.0,0.0,91,0.00,,,0.00,VWS V14.01,2013-01-19 07:53:00,
2013-01-19 01:58:00,31.1,28.8,29.80,West,263,0.0,0.0,91,0.00,,,0.00,VWS V14.01,2013-01-19 07:58:00,
2013-01-19 02:00:00,31.1,28.8,29.80,West,263,0.0,1.0,91,0.00,,,0.00,VWS V14.01,2013-01-19 08:00:00,
2013-01-19 02:03:00,31.0,29.0,29.80,West,263,1.0,1.0,92,0.00,,,0.00,VWS V14.01,2013-01-19 08:03:00,
2013-01-19 02:09:00,31.0,29.0,29.81,West,263,1.0,1.0,92,0.00,,,0.00,VWS V14.01,2013-01-19 08:09:00,
2013-01-19 02:14:00,30.9,28.6,29.81,West,263,0.0,0.0,91,0.00,,,0.00,VWS V14.01,2013-01-19 08:14:00,
2013-01-19 02:15:00,30.9,28.6,29.80,West,263,0.0,1.0,91,0.00,,,0.00,VWS V14.01,2013-01-19 08:15:00,
2013-01-19 02:19:00,30.9,28.9,29.81,West,262,0.0,2.0,92,0.00,,,0.00,VWS V14.01,2013-01-19 08:19:00,
2013-01-19 02:24:00,30.9,28.9,29.80,WSW,255,0.0,2.0,92,0.00,,,0.00,VWS V14.01,2013-01-19 08:24:00,
2013-01-19 02:29:00,31.0,29.0,29.81,WNW,302,0.0,0.0,92,0.00,,,0.00,VWS V14.01,2013-01-19 08:29:00,
2013-01-19 02:30:00,31.0,29.0,29.81,WNW,302,0.0,3.0,92,0.00,,,0.00,VWS V14.01,2013-01-19 08:30:00,
2013-01-19 02:34:00,30.9,28.9,29.80,WNW,300,0.0,3.0,92,0.00,,,0.00,VWS V14.01,2013-01-19 08:34:00,
2013-01-19 02:39:00,30.8,28.8,29.81,SW,231,1.0,3.0,92,0.00,,,0.00,VWS V14.01,2013-01-19 08:39:00,
2013-01-19 02:44:00,30.8,28.8,29.80,WNW,295,1.0,2.0,92,0.00,,,0.00,VWS V14.01,2013-01-19 08:44:00,
2013-01-19 02:45:00,30.9,28.9,29.80,West,263,1.0,3.0,92,0.00,,,0.00,VWS V14.01,2013-01-19 08:45:00,
2013-01-19 02:50:00,30.8,28.8,29.80,West,272,1.0,4.0,92,0.00,,,0.00,VWS V14.01,2013-01-19 08:50:00,
2013-01-19 02:55:00,30.9,28.9,29.80,SSW,204,2.0,4.0,92,0.00,,,0.00,VWS V14.01,2013-01-19 08:55:00,
2013-01-19 03:00:00,31.0,29.0,29.80,SW,229,1.0,2.0,92,0.00,,,0.00,VWS V14.01,2013-01-19 09:00:00,
2013-01-19 03:05:00,31.0,29.0,29.80,WSW,248,4.0,4.0,92,0.00,,,0.00,VWS V14.01,2013-01-19 09:05:00,
2013-01-19 03:10:00,31.0,28.7,29.79,South,189,3.0,4.0,91,0.00,,,0.00,VWS V14.01,2013-01-19 09:10:00,
2013-01-19 03:15:00,31.0,29.0,29.78,SW,226,0.0,3.0,92,0.00,,,0.00,VWS V14.01,2013-01-19 09:15:00,
2013-01-19 03:20:00,31.0,29.0,29.78,SSW,204,2.0,3.0,92,0.00,,,0.00,VWS V14.01,2013-01-19 09:20:00,
2013-01-19 03:25:00,31.0,29.0,29.77,SSW,203,2.0,3.0,92,0.00,,,0.00,VWS V14.01,2013-01-19 09:25:00,
2013-01-19 03:30:00,31.0,29.0,29.77,SSW,202,0.0,3.0,92,0.00,,,0.00,VWS V14.01,2013-01-19 09:30:00,
2013-01-19 03:35:00,31.0,28.7,29.77,SSW,202,0.0,3.0,91,0.00,,,0.00,VWS V14.01,2013-01-19 09:35:00,
2013-01-19 03:41:00,31.1,29.0,29.77,SSW,200,1.0,3.0,92,0.00,,,0.00,VWS V14.01,2013-01-19 09:41:00,
2013-01-19 03:45:00,31.1,29.0,29.77,SW,223,0.0,3.0,92,0.00,,,0.00,VWS V14.01,2013-01-19 09:45:00,
2013-01-19 03:46:00,31.1,29.0,29.77,SW,218,1.0,3.0,92,0.00,,,0.00,VWS V14.01,2013-01-19 09:46:00,
2013-01-19 03:51:00,31.1,28.8,29.76,SW,219,5.0,6.0,91,0.00,,,0.00,VWS V14.01,2013-01-19 09:51:00,
2013-01-19 03:56:00,31.1,28.8,29.75,SSW,200,4.0,6.0,91,0.00,,,0.00,VWS V14.01,2013-01-19 09:56:00,
2013-01-19 04:00:00,31.0,28.7,29.76,West,272,2.0,6.0,91,0.00,,,0.00,VWS V14.01,2013-01-19 10:00:00,
2013-01-19 04:01:00,30.9,28.6,29.76,West,277,3.0,4.0,91,0.00,,,0.00,VWS V14.01,2013-01-19 10:01:00,
2013-01-19 04:06:00,31.0,29.0,29.76,WNW,286,0.0,5.0,92,0.00,,,0.00,VWS V14.01,2013-01-19 10:06:00,
2013-01-19 04:11:00,31.0,29.0,29.76,SSW,209,0.0,5.0,92,0.00,,,0.00,VWS V14.01,2013-01-19 10:11:00,
2013-01-19 04:15:00,31.0,29.0,29.76,South,183,1.0,5.0,92,0.00,,,0.00,VWS V14.01,2013-01-19 10:15:00,
2013-01-19 04:16:00,31.1,29.0,29.76,SW,229,4.0,4.0,92,0.00,,,0.00,VWS V14.01,2013-01-19 10:16:00,
2013-01-19 04:21:00,31.2,29.1,29.76,WSW,241,0.0,4.0,92,0.00,,,0.00,VWS V14.01,2013-01-19 10:21:00,
2013-01-19 04:27:00,31.3,29.2,29.76,WSW,246,0.0,4.0,92,0.00,,,0.00,VWS V14.01,2013-01-19 10:27:00,
2013-01-19 04:30:00,31.4,29.4,29.76,WSW,245,0.0,4.0,92,0.00,,,0.00,VWS V14.01,2013-01-19 10:30:00,
2013-01-19 04:32:00,31.4,29.4,29.76,WSW,245,0.0,2.0,92,0.00,,,0.00,VWS V14.01,2013-01-19 10:32:00,
2013-01-19 04:37:00,31.5,29.5,29.75,WSW,245,0.0,2.0,92,0.00,,,0.00,VWS V14.01,2013-01-19 10:37:00,
2013-01-19 04:42:00,31.5,29.5,29.75,WSW,238,2.0,2.0,92,0.00,,,0.00,VWS V14.01,2013-01-19 10:42:00,
2013-01-19 04:45:00,31.5,29.5,29.75,WSW,238,0.0,2.0,92,0.00,,,0.00,VWS V14.01,2013-01-19 10:45:00,
2013-01-19 04:47:00,31.6,29.3,29.75,South,190,1.0,4.0,91,0.00,,,0.00,VWS V14.01,2013-01-19 10:47:00,
2013-01-19 04:52:00,31.6,29.3,29.74,South,188,4.0,6.0,91,0.00,,,0.00,VWS V14.01,2013-01-19 10:52:00,
2013-01-19 04:58:00,31.5,29.2,29.73,South,180,1.0,7.0,91,0.00,,,0.00,VWS V14.01,2013-01-19 10:58:00,
2013-01-19 05:00:00,31.5,29.2,29.73,South,186,3.0,7.0,91,0.00,,,0.00,VWS V14.01,2013-01-19 11:00:00,
2013-01-19 05:03:00,31.4,29.1,29.73,South,188,4.0,4.0,91,0.00,,,0.00,VWS V14.01,2013-01-19 11:03:00,
2013-01-19 05:08:00,31.4,29.1,29.72,South,185,2.0,6.0,91,0.00,,,0.00,VWS V14.01,2013-01-19 11:08:00,
2013-01-19 05:13:00,31.5,29.5,29.72,West,279,2.0,6.0,92,0.00,,,0.00,VWS V14.01,2013-01-19 11:13:00,
2013-01-19 05:15:00,31.5,29.5,29.72,West,279,2.0,6.0,92,0.00,,,0.00,VWS V14.01,2013-01-19 11:15:00,
2013-01-19 05:30:00,32.1,29.8,29.74,NNE,27,0.0,6.0,91,0.00,,,0.00,VWS V14.01,2013-01-19 11:30:00,
2013-01-19 05:45:00,32.4,29.8,29.76,WNW,294,0.0,3.0,90,0.00,,,0.00,VWS V14.01,2013-01-19 11:45:00,
2013-01-19 06:00:00,32.1,29.5,29.75,WNW,294,0.0,2.0,90,0.00,,,0.00,VWS V14.01,2013-01-19 12:00:00,
2013-01-19 06:15:00,31.9,29.3,29.75,WNW,292,0.0,3.0,90,0.00,,,0.00,VWS V14.01,2013-01-19 12:15:00,
2013-01-19 06:30:00,31.8,29.5,29.74,WNW,300,0.0,2.0,91,0.00,,,0.00,VWS V14.01,2013-01-19 12:30:00,
2013-01-19 06:45:00,31.8,29.5,29.73,NNW,332,1.0,3.0,91,0.00,,,0.00,VWS V14.01,2013-01-19 12:45:00,
2013-01-19 06:48:00,31.9,29.6,29.72,WNW,289,0.0,2.0,91,0.00,,,0.00,VWS V14.01,2013-01-19 12:48:00,
2013-01-19 06:49:00,31.9,29.6,29.73,North,11,0.0,2.0,91,0.00,,,0.00,VWS V14.01,2013-01-19 12:49:00,
2013-01-19 06:55:00,31.9,29.6,29.72,NNE,30,0.0,4.0,91,0.00,,,0.00,VWS V14.01,2013-01-19 12:55:00,
2013-01-19 07:00:00,31.9,29.6,29.72,West,267,0.0,3.0,91,0.00,,,0.00,VWS V14.01,2013-01-19 13:00:00,
2013-01-19 07:05:00,31.9,29.3,29.73,SE,144,0.0,3.0,90,0.00,,,0.00,VWS V14.01,2013-01-19 13:05:00,
2013-01-19 07:10:00,31.9,29.3,29.73,SE,126,0.0,3.0,90,0.00,,,0.00,VWS V14.01,2013-01-19 13:10:00,
2013-01-19 07:15:00,31.9,29.6,29.72,NNE,32,0.0,4.0,91,0.00,,,0.00,VWS V14.01,2013-01-19 13:15:00,
2013-01-19 07:20:00,32.0,29.7,29.71,NNW,333,0.0,6.0,91,0.00,,,0.00,VWS V14.01,2013-01-19 13:20:00,
2013-01-19 07:25:00,32.1,29.8,29.72,ESE,112,2.0,6.0,91,0.00,,,0.00,VWS V14.01,2013-01-19 13:25:00,
2013-01-19 07:30:00,32.2,29.6,29.72,ENE,78,1.0,6.0,90,0.00,,,0.00,VWS V14.01,2013-01-19 13:30:00,
2013-01-19 07:31:00,32.2,29.6,29.72,SE,136,1.0,5.0,90,0.00,,,0.00,VWS V14.01,2013-01-19 13:31:00,
2013-01-19 07:36:00,32.2,29.6,29.73,SSE,159,0.0,5.0,90,0.00,,,0.00,VWS V14.01,2013-01-19 13:36:00,
2013-01-19 07:41:00,32.2,29.6,29.73,NW,309,0.0,5.0,90,0.00,,,0.00,VWS V14.01,2013-01-19 13:41:00,
2013-01-19 07:45:00,32.2,29.6,29.73,NW,321,3.0,5.0,90,0.00,,,0.00,VWS V14.01,2013-01-19 13:45:00,
2013-01-19 07:46:00,32.2,29.6,29.73,NW,309,0.0,3.0,90,0.00,,,0.00,VWS V14.01,2013-01-19 13:46:00,
2013-01-19 07:52:00,32.3,29.7,29.74,South,177,0.0,3.0,90,0.00,,,0.00,VWS V14.01,2013-01-19 13:52:00,
2013-01-19 07:57:00,32.6,30.0,29.74,WNW,288,0.0,4.0,90,0.00,,,0.00,VWS V14.01,2013-01-19 13:57:00,
2013-01-19 08:00:00,32.7,30.1,29.74,WSW,245,1.0,4.0,90,0.00,,,0.00,VWS V14.01,2013-01-19 14:00:00,
2013-01-19 08:02:00,32.8,30.2,29.74,ESE,105,0.0,4.0,90,0.00,,,0.00,VWS V14.01,2013-01-19 14:02:00,
2013-01-19 08:07:00,32.9,30.0,29.74,NNW,345,0.0,4.0,89,0.00,,,0.00,VWS V14.01,2013-01-19 14:07:00,
2013-01-19 08:12:00,33.1,30.2,29.75,WSW,248,0.0,4.0,89,0.00,,,0.00,VWS V14.01,2013-01-19 14:12:00,
2013-01-19 08:15:00,33.1,30.2,29.75,SSW,198,0.0,4.0,89,0.00,,,0.00,VWS V14.01,2013-01-19 14:15:00,
2013-01-19 08:17:00,33.1,30.2,29.75,South,184,3.0,3.0,89,0.00,,,0.00,VWS V14.01,2013-01-19 14:17:00,
2013-01-19 08:22:00,33.1,29.9,29.75,SSE,159,0.0,3.0,88,0.00,,,0.00,VWS V14.01,2013-01-19 14:22:00,
2013-01-19 08:27:00,33.2,30.3,29.75,NW,325,5.0,5.0,89,0.00,,,0.00,VWS V14.01,2013-01-19 14:27:00,
2013-01-19 08:30:00,33.2,30.3,29.75,WNW,291,1.0,5.0,89,0.00,,,0.00,VWS V14.01,2013-01-19 14:30:00,
2013-01-19 08:32:00,33.3,30.1,29.75,WNW,291,0.0,2.0,88,0.00,,,0.00,VWS V14.01,2013-01-19 14:32:00,
2013-01-19 08:37:00,33.5,30.3,29.75,West,259,1.0,5.0,88,0.00,,,0.00,VWS V14.01,2013-01-19 14:37:00,
2013-01-19 08:42:00,33.7,30.5,29.76,NW,310,2.0,6.0,88,0.00,,,0.00,VWS V14.01,2013-01-19 14:42:00,
2013-01-19 08:45:00,33.8,30.6,29.76,NNW,332,6.0,6.0,88,0.00,,,0.00,VWS V14.01,2013-01-19 14:45:00,
2013-01-19 08:47:00,33.9,30.5,29.76,WNW,297,1.0,6.0,87,0.00,,,0.00,VWS V14.01,2013-01-19 14:47:00,
2013-01-19 08:53:00,34.0,30.5,29.76,NNW,348,2.0,6.0,87,0.00,,,0.00,VWS V14.01,2013-01-19 14:53:00,
2013-01-19 08:58:00,34.1,30.6,29.76,WNW,295,2.0,6.0,87,0.00,,,0.00,VWS V14.01,2013-01-19 14:58:00,
2013-01-19 09:00:00,34.1,30.6,29.76,WSW,254,4.0,6.0,87,0.00,,,0.00,VWS V14.01,2013-01-19 15:00:00,
2013-01-19 09:03:00,34.1,30.6,29.77,West,270,4.0,9.0,87,0.00,,,0.00,VWS V14.01,2013-01-19 15:03:00,
2013-01-19 09:08:00,34.1,30.4,29.76,NNW,330,0.0,9.0,86,0.00,,,0.00,VWS V14.01,2013-01-19 15:08:00,
2013-01-19 09:13:00,34.1,30.4,29.77,WNW,290,0.0,10.0,86,0.00,,,0.00,VWS V14.01,2013-01-19 15:13:00,
2013-01-19 09:15:00,34.1,30.6,29.77,WNW,290,0.0,10.0,87,0.00,,,0.00,VWS V14.01,2013-01-19 15:15:00,
2013-01-19 09:18:00,34.2,30.7,29.76,East,93,0.0,2.0,87,0.00,,,0.00,VWS V14.01,2013-01-19 15:18:00,
2013-01-19 09:23:00,34.2,30.5,29.76,South,169,0.0,5.0,86,0.00,,,0.00,VWS V14.01,2013-01-19 15:23:00,
2013-01-19 09:28:00,34.3,30.6,29.77,South,184,2.0,2.0,86,0.00,,,0.00,VWS V14.01,2013-01-19 15:28:00,
2013-01-19 09:30:00,34.3,30.6,29.77,South,184,2.0,5.0,86,0.00,,,0.00,VWS V14.01,2013-01-19 15:30:00,
2013-01-19 09:33:00,34.5,30.8,29.77,WSW,254,2.0,4.0,86,0.00,,,0.00,VWS V14.01,2013-01-19 15:33:00,
2013-01-19 09:38:00,34.7,31.0,29.77,WNW,284,1.0,4.0,86,0.00,,,0.00,VWS V14.01,2013-01-19 15:38:00,
2013-01-19 09:43:00,34.8,30.8,29.77,WNW,298,0.0,2.0,85,0.00,,,0.00,VWS V14.01,2013-01-19 15:43:00,
2013-01-19 09:45:00,34.8,30.8,29.77,WNW,298,2.0,4.0,85,0.00,,,0.00,VWS V14.01,2013-01-19 15:45:00,
2013-01-19 09:49:00,35.0,30.7,29.78,West,271,0.0,7.0,84,0.00,,,0.00,VWS V14.01,2013-01-19 15:49:00,
2013-01-19 09:54:00,35.2,30.9,29.78,WNW,282,0.0,10.0,84,0.00,,,0.00,VWS V14.01,2013-01-19 15:54:00,
2013-01-19 09:59:00,35.3,30.7,29.78,West,281,2.0,4.0,83,0.00,,,0.00,VWS V14.01,2013-01-19 15:59:00,
2013-01-19 10:00:00,35.3,30.7,29.78,NNW,332,3.0,10.0,83,0.00,,,0.00,VWS V14.01,2013-01-19 16:00:00,
2013-01-19 10:04:00,35.4,30.8,29.78,NW,312,0.0,9.0,83,0.00,,,0.00,VWS V14.01,2013-01-19 16:04:00,
2013-01-19 10:09:00,35.5,30.9,29.79,NW,304,3.0,9.0,83,0.00,,,0.00,VWS V14.01,2013-01-19 16:09:00,
2013-01-19 10:14:00,35.5,30.6,29.79,West,279,0.0,7.0,82,0.00,,,0.00,VWS V14.01,2013-01-19 16:14:00,
2013-01-19 10:15:00,35.5,30.6,29.79,NW,306,6.0,11.0,82,0.00,,,0.00,VWS V14.01,2013-01-19 16:15:00,
2013-01-19 10:19:00,35.6,31.0,29.79,WNW,288,5.0,8.0,83,0.00,,,0.00,VWS V14.01,2013-01-19 16:19:00,
2013-01-19 10:24:00,35.6,30.7,29.78,NW,304,1.0,11.0,82,0.00,,,0.00,VWS V14.01,2013-01-19 16:24:00,
2013-01-19 10:30:00,35.8,31.1,29.78,WNW,302,1.0,4.0,83,0.00,,,0.00,VWS V14.01,2013-01-19 16:30:00,
2013-01-19 10:35:00,35.9,31.0,29.78,WNW,300,4.0,5.0,82,0.00,,,0.00,VWS V14.01,2013-01-19 16:35:00,
2013-01-19 10:40:00,36.1,31.1,29.78,WNW,284,3.0,7.0,82,0.00,,,0.00,VWS V14.01,2013-01-19 16:40:00,
2013-01-19 10:45:00,36.5,31.2,29.79,WNW,303,4.0,10.0,81,0.00,,,0.00,VWS V14.01,2013-01-19 16:45:00,
2013-01-19 10:50:00,36.7,31.4,29.80,NNW,341,3.0,10.0,81,0.00,,,0.00,VWS V14.01,2013-01-19 16:50:00,
2013-01-19 10:55:00,36.7,31.1,29.79,WNW,301,2.0,10.0,80,0.00,,,0.00,VWS V14.01,2013-01-19 16:55:00,
2013-01-19 11:00:00,36.8,31.5,29.79,WNW,288,9.0,12.0,81,0.00,,,0.00,VWS V14.01,2013-01-19 17:00:00,
2013-01-19 11:05:00,36.9,31.3,29.80,West,277,9.0,16.0,80,0.00,,,0.00,VWS V14.01,2013-01-19 17:05:00,
2013-01-19 11:10:00,36.8,31.2,29.80,NW,313,3.0,16.0,80,0.00,,,0.00,VWS V14.01,2013-01-19 17:10:00,
2013-01-19 11:15:00,36.9,31.3,29.79,WNW,301,4.0,16.0,80,0.00,,,0.00,VWS V14.01,2013-01-19 17:15:00,
2013-01-19 11:16:00,36.9,31.3,29.80,WNW,302,10.0,10.0,80,0.00,,,0.00,VWS V14.01,2013-01-19 17:16:00,
2013-01-19 11:21:00,37.1,31.5,29.79,NW,307,6.0,10.0,80,0.00,,,0.00,VWS V14.01,2013-01-19 17:21:00,
2013-01-19 11:26:00,37.2,31.6,29.78,North,5,3.0,13.0,80,0.00,,,0.00,VWS V14.01,2013-01-19 17:26:00,
2013-01-19 11:30:00,37.3,31.7,29.78,NW,323,2.0,13.0,80,0.00,,,0.00,VWS V14.01,2013-01-19 17:30:00,
2013-01-19 11:31:00,37.3,31.7,29.78,NW,323,6.0,10.0,80,0.00,,,0.00,VWS V14.01,2013-01-19 17:31:00,
2013-01-19 11:36:00,37.3,31.4,29.78,West,272,3.0,10.0,79,0.00,,,0.00,VWS V14.01,2013-01-19 17:36:00,
2013-01-19 11:41:00,37.4,31.5,29.78,WNW,297,4.0,12.0,79,0.00,,,0.00,VWS V14.01,2013-01-19 17:41:00,
2013-01-19 11:45:00,37.4,31.5,29.78,NNW,327,3.0,12.0,79,0.00,,,0.00,VWS V14.01,2013-01-19 17:45:00,
2013-01-19 11:46:00,37.6,31.7,29.78,WNW,287,7.0,11.0,79,0.00,,,0.00,VWS V14.01,2013-01-19 17:46:00,
2013-01-19 11:52:00,37.8,31.9,29.78,NW,320,3.0,12.0,79,0.00,,,0.00,VWS V14.01,2013-01-19 17:52:00,
2013-01-19 11:57:00,37.9,31.7,29.78,WNW,286,2.0,12.0,78,0.00,,,0.00,VWS V14.01,2013-01-19 17:57:00,
2013-01-19 12:00:00,38.0,32.1,29.78,WNW,286,0.0,12.0,79,0.00,,,0.00,VWS V14.01,2013-01-19 18:00:00,
2013-01-19 12:02:00,38.1,31.9,29.78,NW,315,6.0,12.0,78,0.00,,,0.00,VWS V14.01,2013-01-19 18:02:00,
2013-01-19 12:08:00,38.5,32.2,29.78,West,271,3.0,12.0,78,0.00,,,0.00,VWS V14.01,2013-01-19 18:08:00,
2013-01-19 12:13:00,39.0,32.4,29.78,WNW,301,4.0,13.0,77,0.00,,,0.00,VWS V14.01,2013-01-19 18:13:00,
2013-01-19 12:15:00,39.0,32.4,29.78,NNW,343,1.0,13.0,77,0.00,,,0.00,VWS V14.01,2013-01-19 18:15:00,
2013-01-19 12:18:00,39.0,32.1,29.79,WNW,299,12.0,12.0,76,0.00,,,0.00,VWS V14.01,2013-01-19 18:18:00,
2013-01-19 12:23:00,39.0,32.4,29.78,WNW,287,5.0,12.0,77,0.00,,,0.00,VWS V14.01,2013-01-19 18:23:00,
2013-01-19 12:28:00,39.7,33.1,29.78,NW,310,8.0,12.0,77,0.00,,,0.00,VWS V14.01,2013-01-19 18:28:00,
2013-01-19 12:30:00,39.8,33.2,29.78,NNW,333,6.0,12.0,77,0.00,,,0.00,VWS V14.01,2013-01-19 18:30:00,
2013-01-19 12:33:00,39.8,32.5,29.78,NW,304,5.0,16.0,75,0.00,,,0.00,VWS V14.01,2013-01-19 18:33:00,
2013-01-19 12:38:00,39.3,32.4,29.78,WNW,300,5.0,16.0,76,0.00,,,0.00,VWS V14.01,2013-01-19 18:38:00,
2013-01-19 12:44:00,39.0,32.4,29.78,NNW,336,5.0,7.0,77,0.00,,,0.00,VWS V14.01,2013-01-19 18:44:00,
2013-01-19 12:45:00,39.0,32.1,29.78,NW,307,5.0,16.0,76,0.00,,,0.00,VWS V14.01,2013-01-19 18:45:00,
2013-01-19 12:49:00,38.9,32.3,29.79,NW,315,10.0,10.0,77,0.00,,,0.00,VWS V14.01,2013-01-19 18:49:00,
2013-01-19 12:54:00,38.7,32.1,29.78,WNW,290,7.0,14.0,77,0.00,,,0.00,VWS V14.01,2013-01-19 18:54:00,
2013-01-19 12:59:00,39.1,32.5,29.78,WNW,297,3.0,9.0,77,0.00,,,0.00,VWS V14.01,2013-01-19 18:59:00,
2013-01-19 13:00:00,39.0,32.7,29.78,NW,310,3.0,14.0,78,0.00,,,0.00,VWS V14.01,2013-01-19 19:00:00,
2013-01-19 13:04:00,39.2,32.6,29.78,West,273,5.0,13.0,77,0.00,,,0.00,VWS V14.01,2013-01-19 19:04:00,
2013-01-19 13:09:00,39.0,32.1,29.78,WNW,291,9.0,13.0,76,0.00,,,0.00,VWS V14.01,2013-01-19 19:09:00,
2013-01-19 13:14:00,38.8,32.2,29.79,NW,311,8.0,12.0,77,0.00,,,0.00,VWS V14.01,2013-01-19 19:14:00,
2013-01-19 13:15:00,38.8,32.2,29.79,WNW,302,6.0,13.0,77,0.00,,,0.00,VWS V14.01,2013-01-19 19:15:00,
2013-01-19 13:20:00,38.9,32.0,29.79,West,268,9.0,17.0,76,0.00,,,0.00,VWS V14.01,2013-01-19 19:20:00,
2013-01-19 13:25:00,38.9,32.0,29.79,WNW,288,3.0,17.0,76,0.00,,,0.00,VWS V14.01,2013-01-19 19:25:00,
2013-01-19 13:30:00,39.0,32.1,29.79,West,280,7.0,17.0,76,0.00,,,0.00,VWS V14.01,2013-01-19 19:30:00,
2013-01-19 13:35:00,38.9,32.0,29.79,West,259,2.0,17.0,76,0.00,,,0.00,VWS V14.01,2013-01-19 19:35:00,
2013-01-19 13:40:00,38.8,32.2,29.79,West,264,3.0,17.0,77,0.00,,,0.00,VWS V14.01,2013-01-19 19:40:00,
2013-01-19 13:45:00,38.8,32.2,29.79,West,273,4.0,17.0,77,0.00,,,0.00,VWS V14.01,2013-01-19 19:45:00,
2013-01-19 13:46:00,38.8,32.5,29.79,WSW,255,5.0,12.0,78,0.00,,,0.00,VWS V14.01,2013-01-19 19:46:00,
2013-01-19 13:51:00,38.7,32.4,29.78,West,278,4.0,12.0,78,0.00,,,0.00,VWS V14.01,2013-01-19 19:51:00,
2013-01-19 13:56:00,38.6,32.3,29.78,WNW,292,4.0,13.0,78,0.00,,,0.00,VWS V14.01,2013-01-19 19:56:00,
2013-01-19 14:00:00,38.5,32.2,29.78,West,260,3.0,13.0,78,0.00,,,0.00,VWS V14.01,2013-01-19 20:00:00,
2013-01-19 14:01:00,38.4,32.5,29.78,WNW,301,9.0,10.0,79,0.00,,,0.00,VWS V14.01,2013-01-19 20:01:00,
2013-01-19 14:06:00,38.4,32.8,29.78,WNW,297,5.0,10.0,80,0.00,,,0.00,VWS V14.01,2013-01-19 20:06:00,
2013-01-19 14:12:00,38.4,32.8,29.79,West,281,8.0,13.0,80,0.00,,,0.00,VWS V14.01,2013-01-19 20:12:00,
2013-01-19 14:15:00,38.4,32.5,29.79,WNW,293,8.0,16.0,79,0.00,,,0.00,VWS V14.01,2013-01-19 20:15:00,
2013-01-19 14:17:00,38.4,32.5,29.79,West,281,6.0,13.0,79,0.00,,,0.00,VWS V14.01,2013-01-19 20:17:00,
2013-01-19 14:22:00,38.2,32.3,29.80,West,272,16.0,21.0,79,0.00,,,0.00,VWS V14.01,2013-01-19 20:22:00,
2013-01-19 14:27:00,36.7,30.8,29.82,NW,324,8.0,21.0,79,0.00,,,0.00,VWS V14.01,2013-01-19 20:27:00,
2013-01-19 14:30:00,36.4,30.2,29.82,NW,325,12.0,21.0,78,0.00,,,0.00,VWS V14.01,2013-01-19 20:30:00,
2013-01-19 14:33:00,34.5,28.0,29.82,NNW,327,10.0,21.0,77,0.00,,,0.00,VWS V14.01,2013-01-19 20:33:00,
2013-01-19 14:38:00,33.3,27.5,29.82,NNE,18,6.0,21.0,79,0.00,,,0.00,VWS V14.01,2013-01-19 20:38:00,
2013-01-19 14:43:00,32.6,26.5,29.82,WNW,288,5.0,21.0,78,0.00,,,0.00,VWS V14.01,2013-01-19 20:43:00,
2013-01-19 14:45:00,32.5,26.4,29.82,SE,138,4.0,21.0,78,0.00,,,0.00,VWS V14.01,2013-01-19 20:45:00,
2013-01-19 14:48:00,31.8,25.4,29.83,NNW,343,11.0,19.0,77,0.00,,,0.00,VWS V14.01,2013-01-19 20:48:00,
2013-01-19 14:54:00,31.4,24.7,29.83,WNW,300,10.0,23.0,76,0.00,,,0.00,VWS V14.01,2013-01-19 20:54:00,
2013-01-19 14:59:00,31.1,24.4,29.84,WNW,290,8.0,20.0,76,0.00,,,0.00,VWS V14.01,2013-01-19 20:59:00,
2013-01-19 15:00:00,31.1,24.4,29.84,WNW,301,20.0,23.0,76,0.00,,,0.00,VWS V14.01,2013-01-19 21:00:00,
2013-01-19 15:04:00,30.3,22.4,29.85,NNW,332,9.0,20.0,72,0.00,,,0.00,VWS V14.01,2013-01-19 21:04:00,
2013-01-19 15:09:00,28.6,20.1,29.86,NW,309,15.0,20.0,70,0.00,,,0.00,VWS V14.01,2013-01-19 21:09:00,
2013-01-19 15:14:00,27.7,19.5,29.87,NW,325,4.0,8.0,71,0.00,,,0.00,VWS V14.01,2013-01-19 21:14:00,
2013-01-19 15:15:00,27.8,19.6,29.86,NW,322,4.0,20.0,71,0.00,,,0.00,VWS V14.01,2013-01-19 21:15:00,
2013-01-19 15:19:00,27.0,17.5,29.87,North,5,15.0,21.0,67,0.00,,,0.00,VWS V14.01,2013-01-19 21:19:00,
2013-01-19 15:24:00,25.6,15.1,29.88,West,273,14.0,21.0,64,0.00,,,0.00,VWS V14.01,2013-01-19 21:24:00,
2013-01-19 15:30:00,25.1,14.6,29.89,NW,304,7.0,15.0,64,0.00,,,0.00,VWS V14.01,2013-01-19 21:30:00,
2013-01-19 15:35:00,24.3,13.5,29.90,WNW,292,14.0,28.0,63,0.00,,,0.00,VWS V14.01,2013-01-19 21:35:00,
2013-01-19 15:40:00,23.8,13.8,29.91,WNW,298,10.0,28.0,65,0.00,,,0.00,VWS V14.01,2013-01-19 21:40:00,
2013-01-19 15:45:00,22.9,11.8,29.92,West,272,16.0,16.0,62,0.00,,,0.00,VWS V14.01,2013-01-19 21:45:00,
2013-01-19 15:50:00,21.1,10.5,29.92,NNW,348,9.0,17.0,63,0.00,,,0.00,VWS V14.01,2013-01-19 21:50:00,
2013-01-19 15:55:00,20.3,9.7,29.93,WNW,288,10.0,17.0,63,0.00,,,0.00,VWS V14.01,2013-01-19 21:55:00,
2013-01-19 16:00:00,20.2,10.0,29.93,NW,321,10.0,17.0,64,0.00,,,0.00,VWS V14.01,2013-01-19 22:00:00,
2013-01-19 16:01:00,20.0,9.4,29.93,NW,311,7.0,17.0,63,0.00,,,0.00,VWS V14.01,2013-01-19 22:01:00,
2013-01-19 16:06:00,19.4,8.5,29.94,WNW,289,14.0,22.0,62,0.00,,,0.00,VWS V14.01,2013-01-19 22:06:00,
2013-01-19 16:12:00,19.0,8.8,29.95,NNE,13,6.0,22.0,64,0.00,,,0.00,VWS V14.01,2013-01-19 22:12:00,
2013-01-19 16:15:00,19.0,8.9,29.95,North,355,7.0,22.0,64,0.00,,,0.00,VWS V14.01,2013-01-19 22:15:00,
2013-01-19 16:17:00,18.8,8.6,29.96,North,351,8.0,17.0,64,0.00,,,0.00,VWS V14.01,2013-01-19 22:17:00,
2013-01-19 16:22:00,18.5,8.4,29.96,NNW,334,7.0,19.0,64,0.00,,,0.00,VWS V14.01,2013-01-19 22:22:00,
2013-01-19 16:28:00,18.2,8.1,29.97,SW,232,10.0,25.0,64,0.00,,,0.00,VWS V14.01,2013-01-19 22:28:00,
2013-01-19 16:30:00,18.2,8.4,29.97,WNW,292,8.0,25.0,65,0.00,,,0.00,VWS V14.01,2013-01-19 22:30:00,
2013-01-19 16:33:00,17.9,8.1,29.97,NNW,338,8.0,19.0,65,0.00,,,0.00,VWS V14.01,2013-01-19 22:33:00,
2013-01-19 16:39:00,17.8,8.4,29.98,West,281,4.0,19.0,66,0.00,,,0.00,VWS V14.01,2013-01-19 22:39:00,
2013-01-19 16:44:00,17.7,8.3,29.98,WNW,295,5.0,13.0,66,0.00,,,0.00,VWS V14.01,2013-01-19 22:44:00,
2013-01-19 16:45:00,17.8,8.4,29.98,WNW,294,13.0,24.0,66,0.00,,,0.00,VWS V14.01,2013-01-19 22:45:00,
2013-01-19 16:49:00,17.5,8.4,29.99,NW,306,4.0,22.0,67,0.00,,,0.00,VWS V14.01,2013-01-19 22:49:00,
2013-01-19 16:54:00,17.3,7.9,29.99,WNW,303,5.0,22.0,66,0.00,,,0.00,VWS V14.01,2013-01-19 22:54:00,
2013-01-19 17:00:00,16.8,7.1,30.00,WNW,289,9.0,14.0,65,0.00,,,0.00,VWS V14.01,2013-01-19 23:00:00,
2013-01-19 17:05:00,16.5,6.8,30.00,SW,231,11.0,23.0,65,0.00,,,0.00,VWS V14.01,2013-01-19 23:05:00,
2013-01-19 17:10:00,15.8,5.1,30.00,NNW,333,7.0,25.0,62,0.00,,,0.00,VWS V14.01,2013-01-19 23:10:00,
2013-01-19 17:15:00,15.5,5.2,30.01,NNW,345,8.0,25.0,63,0.00,,,0.00,VWS V14.01,2013-01-19 23:15:00,
2013-01-19 17:16:00,15.3,5.0,30.01,SSE,159,11.0,16.0,63,0.00,,,0.00,VWS V14.01,2013-01-19 23:16:00,
2013-01-19 17:21:00,14.7,4.1,30.01,NW,316,10.0,19.0,62,0.00,,,0.00,VWS V14.01,2013-01-19 23:21:00,
2013-01-19 17:27:00,14.1,4.2,30.02,NW,306,12.0,22.0,64,0.00,,,0.00,VWS V14.01,2013-01-19 23:27:00,
2013-01-19 17:30:00,14.0,4.1,30.03,NW,308,9.0,23.0,64,0.00,,,0.00,VWS V14.01,2013-01-19 23:30:00,
2013-01-19 17:32:00,13.8,3.5,30.04,NW,309,12.0,16.0,63,0.00,,,0.00,VWS V14.01,2013-01-19 23:32:00,
2013-01-19 17:37:00,13.2,3.0,30.04,NW,318,5.0,21.0,63,0.00,,,0.00,VWS V14.01,2013-01-19 23:37:00,
2013-01-19 17:43:00,12.7,2.8,30.05,North,5,8.0,15.0,64,0.00,,,0.00,VWS V14.01,2013-01-19 23:43:00,
2013-01-19 17:45:00,12.7,2.8,30.05,NNW,328,15.0,21.0,64,0.00,,,0.00,VWS V14.01,2013-01-19 23:45:00,
2013-01-19 17:48:00,12.4,2.6,30.06,NW,312,5.0,26.0,64,0.00,,,0.00,VWS V14.01,2013-01-19 23:48:00,
2013-01-19 17:54:00,12.2,2.7,30.07,NNW,343,4.0,26.0,65,0.00,,,0.00,VWS V14.01,2013-01-19 23:54:00,
2013-01-19 18:00:00,12.0,2.5,30.07,NNW,328,5.0,12.0,65,0.00,,,0.00,VWS V14.01,2013-01-20 00:00:00,
2013-01-19 18:06:00,11.8,2.3,30.08,WNW,295,6.0,21.0,65,0.00,,,0.00,VWS V14.01,2013-01-20 00:06:00,
2013-01-19 18:13:00,11.5,3.0,30.08,West,273,4.0,21.0,68,0.00,,,0.00,VWS V14.01,2013-01-20 00:13:00,
2013-01-19 18:15:00,11.4,2.9,30.08,NW,325,7.0,21.0,68,0.00,,,0.00,VWS V14.01,2013-01-20 00:15:00,
2013-01-19 18:18:00,11.3,3.4,30.08,NW,306,14.0,15.0,70,0.00,,,0.00,VWS V14.01,2013-01-20 00:18:00,
2013-01-19 18:23:00,11.1,3.2,30.08,NW,304,4.0,15.0,70,0.00,,,0.00,VWS V14.01,2013-01-20 00:23:00,
2013-01-19 18:28:00,10.9,3.4,30.08,NW,311,8.0,8.0,71,0.00,,,0.00,VWS V14.01,2013-01-20 00:28:00,
2013-01-19 18:30:00,10.9,3.4,30.08,NNW,333,6.0,18.0,71,0.00,,,0.00,VWS V14.01,2013-01-20 00:30:00,
2013-01-19 18:33:00,10.7,3.8,30.09,WNW,302,15.0,15.0,73,0.00,,,0.00,VWS V14.01,2013-01-20 00:33:00,
2013-01-19 18:39:00,10.5,4.2,30.10,NW,312,12.0,16.0,75,0.00,,,0.00,VWS V14.01,2013-01-20 00:39:00,
2013-01-19 18:45:00,10.3,3.1,30.10,WNW,300,7.0,19.0,72,0.00,,,0.00,VWS V14.01,2013-01-20 00:45:00,
2013-01-19 18:50:00,10.1,2.6,30.11,NW,319,3.0,19.0,71,0.00,,,0.00,VWS V14.01,2013-01-20 00:50:00,
2013-01-19 18:55:00,10.0,2.2,30.11,NW,309,6.0,19.0,70,0.00,,,0.00,VWS V14.01,2013-01-20 00:55:00,
2013-01-19 19:00:00,9.9,1.8,30.12,NNW,343,8.0,17.0,69,0.00,,,0.00,VWS V14.01,2013-01-20 01:00:00,
2013-01-19 19:06:00,9.6,0.9,30.12,NW,321,12.0,17.0,67,0.00,,,0.00,VWS V14.01,2013-01-20 01:06:00,
2013-01-19 19:11:00,9.2,0.2,30.13,North,355,3.0,17.0,66,0.00,,,0.00,VWS V14.01,2013-01-20 01:11:00,
2013-01-19 19:15:00,9.0,0.3,30.13,West,264,21.0,21.0,67,0.00,,,0.00,VWS V14.01,2013-01-20 01:15:00,
2013-01-19 19:16:00,8.9,0.2,30.13,NW,312,8.0,21.0,67,0.00,,,0.00,VWS V14.01,2013-01-20 01:16:00,
2013-01-19 19:21:00,8.8,0.1,30.14,NNW,330,8.0,21.0,67,0.00,,,0.00,VWS V14.01,2013-01-20 01:21:00,
2013-01-19 19:26:00,8.6,-0.1,30.14,NW,319,9.0,21.0,67,0.00,,,0.00,VWS V14.01,2013-01-20 01:26:00,
2013-01-19 19:30:00,8.5,0.1,30.14,West,261,9.0,21.0,68,0.00,,,0.00,VWS V14.01,2013-01-20 01:30:00,
2013-01-19 19:31:00,8.3,-0.1,30.15,NNW,333,5.0,14.0,68,0.00,,,0.00,VWS V14.01,2013-01-20 01:31:00,
2013-01-19 19:36:00,8.2,0.2,30.15,WNW,301,3.0,14.0,69,0.00,,,0.00,VWS V14.01,2013-01-20 01:36:00,
2013-01-19 19:42:00,8.1,0.4,30.16,North,355,4.0,14.0,70,0.00,,,0.00,VWS V14.01,2013-01-20 01:42:00,
2013-01-19 19:45:00,8.1,0.4,30.16,NNW,329,5.0,14.0,70,0.00,,,0.00,VWS V14.01,2013-01-20 01:45:00,
2013-01-19 19:47:00,7.9,0.2,30.16,NNW,348,6.0,13.0,70,0.00,,,0.00,VWS V14.01,2013-01-20 01:47:00,
2013-01-19 19:53:00,7.6,-0.7,30.17,NNW,330,2.0,17.0,68,0.00,,,0.00,VWS V14.01,2013-01-20 01:53:00,
2013-01-19 19:58:00,7.5,-0.5,30.17,NW,315,3.0,17.0,69,0.00,,,0.00,VWS V14.01,2013-01-20 01:58:00,
2013-01-19 20:00:00,7.5,-0.5,30.17,WNW,294,3.0,17.0,69,0.00,,,0.00,VWS V14.01,2013-01-20 02:00:00,
2013-01-19 20:03:00,7.2,-1.1,30.18,WNW,289,5.0,9.0,68,0.00,,,0.00,VWS V14.01,2013-01-20 02:03:00,
2013-01-19 20:08:00,6.8,-1.5,30.18,North,355,10.0,13.0,68,0.00,,,0.00,VWS V14.01,2013-01-20 02:08:00,
2013-01-19 20:14:00,6.6,-1.7,30.19,NNW,336,7.0,7.0,68,0.00,,,0.00,VWS V14.01,2013-01-20 02:14:00,
2013-01-19 20:15:00,6.6,-1.7,30.18,SE,146,4.0,13.0,68,0.00,,,0.00,VWS V14.01,2013-01-20 02:15:00,
2013-01-19 20:19:00,6.5,-1.5,30.19,WNW,297,5.0,9.0,69,0.00,,,0.00,VWS V14.01,2013-01-20 02:19:00,
2013-01-19 20:25:00,6.3,-1.7,30.19,NNW,344,5.0,11.0,69,0.00,,,0.00,VWS V14.01,2013-01-20 02:25:00,
2013-01-19 20:30:00,6.3,-1.7,30.20,North,355,4.0,9.0,69,0.00,,,0.00,VWS V14.01,2013-01-20 02:30:00,
2013-01-19 20:35:00,6.2,-1.5,30.20,NNW,340,7.0,9.0,70,0.00,,,0.00,VWS V14.01,2013-01-20 02:35:00,
2013-01-19 20:40:00,5.8,-1.6,30.21,NW,309,6.0,11.0,71,0.00,,,0.00,VWS V14.01,2013-01-20 02:40:00,
2013-01-19 20:45:00,5.8,-1.3,30.21,NNW,338,5.0,11.0,72,0.00,,,0.00,VWS V14.01,2013-01-20 02:45:00,
2013-01-19 20:47:00,5.7,-1.4,30.21,NW,325,10.0,12.0,72,0.00,,,0.00,VWS V14.01,2013-01-20 02:47:00,
2013-01-19 20:52:00,5.3,-1.8,30.22,NNW,333,7.0,12.0,72,0.00,,,0.00,VWS V14.01,2013-01-20 02:52:00,
2013-01-19 20:57:00,5.2,-1.5,30.22,NNW,342,8.0,12.0,73,0.00,,,0.00,VWS V14.01,2013-01-20 02:57:00,
2013-01-19 21:00:00,5.2,-1.5,30.22,NW,310,2.0,12.0,73,0.00,,,0.00,VWS V14.01,2013-01-20 03:00:00,
2013-01-19 21:02:00,5.1,-1.6,30.22,North,355,6.0,10.0,73,0.00,,,0.00,VWS V14.01,2013-01-20 03:02:00,
2013-01-19 21:07:00,5.1,-1.6,30.23,NNW,346,2.0,14.0,73,0.00,,,0.00,VWS V14.01,2013-01-20 03:07:00,
2013-01-19 21:12:00,5.0,-2.0,30.23,NNW,338,4.0,14.0,72,0.00,,,0.00,VWS V14.01,2013-01-20 03:12:00,
2013-01-19 21:15:00,4.9,-2.1,30.23,NNW,336,5.0,14.0,72,0.00,,,0.00,VWS V14.01,2013-01-20 03:15:00,
2013-01-19 21:17:00,4.9,-2.1,30.23,NNW,342,3.0,10.0,72,0.00,,,0.00,VWS V14.01,2013-01-20 03:17:00,
2013-01-19 21:22:00,4.8,-2.2,30.24,NW,309,6.0,10.0,72,0.00,,,0.00,VWS V14.01,2013-01-20 03:22:00,
2013-01-19 21:27:00,4.7,-2.0,30.24,NW,318,5.0,10.0,73,0.00,,,0.00,VWS V14.01,2013-01-20 03:27:00,
2013-01-19 21:30:00,4.7,-2.0,30.24,NNW,343,2.0,10.0,73,0.00,,,0.00,VWS V14.01,2013-01-20 03:30:00,
2013-01-19 21:33:00,4.6,-2.1,30.24,NW,323,6.0,9.0,73,0.00,,,0.00,VWS V14.01,2013-01-20 03:33:00,
2013-01-19 21:38:00,4.5,-2.5,30.25,NW,317,8.0,10.0,72,0.00,,,0.00,VWS V14.01,2013-01-20 03:38:00,
2013-01-19 21:43:00,4.4,-2.6,30.25,NNW,327,2.0,4.0,72,0.00,,,0.00,VWS V14.01,2013-01-20 03:43:00,
2013-01-19 21:45:00,4.5,-2.5,30.25,NNW,327,4.0,10.0,72,0.00,,,0.00,VWS V14.01,2013-01-20 03:45:00,
2013-01-19 21:48:00,4.4,-2.3,30.25,NNW,332,5.0,8.0,73,0.00,,,0.00,VWS V14.01,2013-01-20 03:48:00,
2013-01-19 21:54:00,4.3,-2.4,30.25,NW,314,4.0,10.0,73,0.00,,,0.00,VWS V14.01,2013-01-20 03:54:00,
2013-01-19 21:59:00,4.0,-2.2,30.26,NNW,340,7.0,7.0,75,0.00,,,0.00,VWS V14.01,2013-01-20 03:59:00,
2013-01-19 22:00:00,4.1,-2.0,30.26,WNW,294,4.0,10.0,75,0.00,,,0.00,VWS V14.01,2013-01-20 04:00:00,
2013-01-19 22:04:00,3.9,-2.2,30.26,North,5,6.0,10.0,75,0.00,,,0.00,VWS V14.01,2013-01-20 04:04:00,
2013-01-19 22:09:00,3.9,-2.0,30.27,NW,323,4.0,10.0,76,0.00,,,0.00,VWS V14.01,2013-01-20 04:09:00,
2013-01-19 22:14:00,3.8,-2.1,30.27,NNW,340,4.0,4.0,76,0.00,,,0.00,VWS V14.01,2013-01-20 04:14:00,
2013-01-19 22:15:00,3.8,-2.1,30.27,WNW,296,3.0,14.0,76,0.00,,,0.00,VWS V14.01,2013-01-20 04:15:00,
2013-01-19 22:19:00,3.7,-2.2,30.27,NNW,339,5.0,10.0,76,0.00,,,0.00,VWS V14.01,2013-01-20 04:19:00,
2013-01-19 22:24:00,3.6,-2.0,30.27,NNW,347,5.0,10.0,77,0.00,,,0.00,VWS V14.01,2013-01-20 04:24:00,
2013-01-19 22:29:00,3.5,-2.3,30.27,NNW,333,2.0,5.0,76,0.00,,,0.00,VWS V14.01,2013-01-20 04:29:00,
2013-01-19 22:30:00,3.5,-2.3,30.27,NNW,347,1.0,10.0,76,0.00,,,0.00,VWS V14.01,2013-01-20 04:30:00,
2013-01-19 22:35:00,3.4,-2.5,30.27,NNW,330,3.0,7.0,76,0.00,,,0.00,VWS V14.01,2013-01-20 04:35:00,
2013-01-19 22:40:00,3.3,-2.8,30.27,NW,314,5.0,8.0,75,0.00,,,0.00,VWS V14.01,2013-01-20 04:40:00,
2013-01-19 22:45:00,3.3,-2.8,30.27,NW,323,5.0,8.0,75,0.00,,,0.00,VWS V14.01,2013-01-20 04:45:00,
2013-01-19 22:46:00,3.2,-2.9,30.27,NNW,344,5.0,9.0,75,0.00,,,0.00,VWS V14.01,2013-01-20 04:46:00,
2013-01-19 22:52:00,3.2,-2.6,30.27,NNW,331,3.0,9.0,76,0.00,,,0.00,VWS V14.01,2013-01-20 04:52:00,
2013-01-19 22:57:00,3.1,-2.7,30.27,North,350,5.0,10.0,76,0.00,,,0.00,VWS V14.01,2013-01-20 04:57:00,
2013-01-19 23:00:00,3.1,-2.7,30.27,NW,319,5.0,10.0,76,0.00,,,0.00,VWS V14.01,2013-01-20 05:00:00,
2013-01-19 23:01:00,3.1,-2.7,30.27,NNW,348,4.0,7.0,76,0.00,,,0.00,VWS V14.01,2013-01-20 05:01:00,
2013-01-19 23:03:00,3.1,-2.7,30.27,NW,308,4.0,8.0,76,0.00,,,0.00,VWS V14.01,2013-01-20 05:03:00,
2013-01-19 23:09:00,3.1,-2.5,30.27,NNW,337,4.0,8.0,77,0.00,,,0.00,VWS V14.01,2013-01-20 05:09:00,
2013-01-19 23:14:00,3.0,-2.6,30.26,NNW,341,1.0,3.0,77,0.00,,,0.00,VWS V14.01,2013-01-20 05:14:00,
2013-01-19 23:15:00,3.0,-2.6,30.26,NNW,340,1.0,8.0,77,0.00,,,0.00,VWS V14.01,2013-01-20 05:15:00,
2013-01-19 23:19:00,3.1,-2.5,30.26,NNW,340,1.0,5.0,77,0.00,,,0.00,VWS V14.01,2013-01-20 05:19:00,
2013-01-19 23:24:00,3.0,-2.3,30.26,NNW,331,3.0,5.0,78,0.00,,,0.00,VWS V14.01,2013-01-20 05:24:00,
2013-01-19 23:29:00,3.0,-2.3,30.27,NW,323,3.0,6.0,78,0.00,,,0.00,VWS V14.01,2013-01-20 05:29:00,
2013-01-19 23:30:00,3.0,-2.3,30.27,NW,324,4.0,5.0,78,0.00,,,0.00,VWS V14.01,2013-01-20 05:30:00,
2013-01-19 23:34:00,3.0,-2.3,30.27,NW,323,2.0,6.0,78,0.00,,,0.00,VWS V14.01,2013-01-20 05:34:00,
2013-01-19 23:39:00,3.0,-2.3,30.28,North,355,2.0,6.0,78,0.00,,,0.00,VWS V14.01,2013-01-20 05:39:00,
2013-01-19 23:44:00,2.9,-2.1,30.28,NW,313,4.0,7.0,79,0.00,,,0.00,VWS V14.01,2013-01-20 05:44:00,
2013-01-19 23:45:00,2.9,-2.4,30.28,NW,317,5.0,7.0,78,0.00,,,0.00,VWS V14.01,2013-01-20 05:45:00,
2013-01-19 23:49:00,2.9,-1.9,30.29,NW,319,3.0,8.0,80,0.00,,,0.00,VWS V14.01,2013-01-20 05:49:00,
2013-01-19 23:54:00,2.9,-1.9,30.30,NW,312,3.0,9.0,80,0.00,,,0.00,VWS V14.01,2013-01-20 05:54:00,